TAF MNJG
METAR MNJG
MNJG 082100Z 09004KT 9999 BKN016 24/15 Q1011=
MNJG 082000Z 09004KT 9999 SCT020 24/15 Q1012=
MNJG 081900Z 32006KT 9999 SCT020 25/16 Q1013=
MNJG 081800Z 03006KT 9999 SCT018 24/16 Q1015=
MNJG 081700Z 03006KT 9999 SCT016 23/15 Q1015=
WC MNJG
WS MNJG
WV MNJG